createdAt,value
2023-01-17T00:01:49.049Z,42.42
2023-01-17T00:04:34.017Z,43.38
2023-01-17T00:07:19.242Z,45.88
2023-01-17T00:09:56.694Z,41.33
2023-01-17T00:12:24.430Z,50.38
2023-01-17T00:14:51.580Z,61.83
2023-01-17T00:17:17.992Z,41.40
2023-01-17T00:20:02.971Z,50.33
2023-01-17T00:22:48.868Z,50.17
2023-01-17T00:25:35.620Z,50.40
2023-01-17T00:28:02.316Z,45.97
2023-01-17T00:30:29.320Z,56.90
2023-01-17T00:32:55.711Z,45.85
2023-01-17T00:35:22.974Z,41.80
2023-01-17T00:37:49.506Z,51.95
2023-01-17T00:40:15.966Z,54.58
2023-01-17T00:42:42.481Z,76.13
2023-01-17T00:45:27.867Z,61.10
2023-01-17T00:48:12.966Z,42.58
2023-01-17T00:50:58.282Z,76.72
2023-01-17T00:53:43.398Z,43.85
2023-01-17T00:56:28.730Z,58.92
2023-01-17T00:59:13.816Z,55.30
2023-01-17T01:01:59.301Z,55.67
2023-01-17T01:04:44.366Z,55.10
2023-01-17T01:07:29.407Z,54.85
2023-01-17T01:10:14.615Z,45.70
2023-01-17T01:12:59.714Z,51.92
2023-01-17T01:15:44.768Z,55.55
2023-01-17T01:18:30.630Z,53.67
2023-01-17T01:21:20.279Z,47.92
2023-01-17T01:24:05.748Z,65.35
2023-01-17T01:26:50.918Z,57.08
2023-01-17T01:29:36.262Z,55.75
2023-01-17T01:32:21.507Z,67.88
2023-01-17T01:34:47.978Z,53.38
2023-01-17T01:37:14.388Z,46.35
2023-01-17T01:39:40.835Z,62.50
2023-01-17T01:42:13.266Z,69.47
2023-01-17T01:44:42.645Z,61.70
2023-01-17T01:47:13.795Z,45.58
2023-01-17T01:49:40.363Z,55.88
2023-01-17T01:52:08.035Z,54.85
2023-01-17T01:54:37.041Z,64.82
2023-01-17T01:57:04.938Z,50.85
2023-01-17T01:59:32.781Z,56.00
2023-01-17T02:01:59.576Z,69.82
2023-01-17T02:04:27.287Z,59.42
2023-01-17T02:06:57.769Z,49.47
2023-01-17T02:09:24.409Z,58.92
2023-01-17T02:11:50.920Z,58.45
2023-01-17T02:14:17.991Z,66.28
2023-01-17T02:17:02.938Z,72.55
2023-01-17T02:19:48.314Z,56.17
2023-01-17T02:22:20.555Z,68.75
2023-01-17T02:24:53.102Z,56.15
2023-01-17T02:27:27.214Z,52.20
2023-01-17T02:30:11.890Z,77.22
2023-01-17T02:32:45.301Z,91.82
2023-01-17T02:37:46.588Z,62.55
2023-01-17T02:40:14.332Z,59.35
2023-01-17T02:42:44.647Z,62.78
2023-01-17T02:45:15.384Z,56.85
2023-01-17T02:47:41.802Z,86.25
2023-01-17T02:50:10.570Z,68.38
2023-01-17T02:52:46.088Z,68.78
2023-01-17T02:55:16.717Z,46.08
2023-01-17T02:58:06.717Z,57.92
2023-01-17T03:00:46.258Z,67.75
2023-01-17T03:03:12.709Z,68.10
2023-01-17T03:05:51.360Z,79.88
2023-01-17T03:08:18.426Z,59.63
2023-01-17T03:10:45.436Z,49.15
2023-01-17T03:13:11.899Z,54.10
2023-01-17T03:15:39.205Z,59.92
2023-01-17T03:18:07.794Z,67.03
2023-01-17T03:20:34.195Z,63.30
2023-01-17T03:23:00.773Z,68.30
2023-01-17T03:25:27.381Z,52.08
2023-01-17T03:27:54.677Z,73.68
2023-01-17T03:30:22.986Z,67.47
2023-01-17T03:32:49.532Z,65.75
2023-01-17T03:35:16.160Z,46.25
2023-01-17T03:37:42.775Z,59.15
2023-01-17T03:40:09.937Z,56.08
2023-01-17T03:42:36.348Z,86.20
2023-01-17T03:45:02.911Z,52.47
2023-01-17T03:47:29.377Z,52.17
2023-01-17T03:49:55.804Z,60.30
2023-01-17T03:52:22.221Z,63.92
2023-01-17T03:54:48.909Z,70.78
2023-01-17T03:57:15.731Z,62.65
2023-01-17T03:59:42.354Z,69.05
2023-01-17T04:02:08.948Z,61.00
2023-01-17T04:04:35.443Z,58.38
2023-01-17T04:07:01.894Z,59.60
2023-01-17T04:09:28.419Z,67.60
2023-01-17T04:11:54.874Z,59.47
2023-01-17T04:14:21.310Z,50.65
2023-01-17T04:16:47.817Z,59.80
2023-01-17T04:19:14.301Z,45.35
2023-01-17T04:21:40.697Z,84.68
2023-01-17T04:24:07.290Z,75.93
2023-01-17T04:26:33.708Z,57.88
2023-01-17T04:29:00.210Z,54.25
2023-01-17T04:31:26.632Z,51.50
2023-01-17T04:33:53.158Z,45.45
2023-01-17T04:36:19.563Z,47.67
2023-01-17T04:38:46.126Z,64.25
2023-01-17T04:41:12.597Z,54.05
2023-01-17T04:43:39.170Z,53.30
2023-01-17T04:46:09.960Z,60.03
2023-01-17T04:48:36.887Z,52.20
2023-01-17T04:51:04.269Z,46.08
2023-01-17T04:53:30.977Z,49.65
2023-01-17T04:55:57.567Z,35.42
2023-01-17T04:58:24.304Z,56.00
2023-01-17T05:00:51.786Z,49.38
2023-01-17T05:03:19.034Z,54.97
2023-01-17T05:05:45.615Z,65.30
2023-01-17T05:08:12.168Z,55.25
2023-01-17T05:10:38.661Z,44.20
2023-01-17T05:13:05.181Z,45.40
2023-01-17T05:15:34.365Z,39.97
2023-01-17T05:18:00.849Z,38.33
2023-01-17T05:20:27.840Z,61.30
2023-01-17T05:22:56.440Z,56.45
2023-01-17T05:25:27.275Z,49.63
2023-01-17T05:27:53.801Z,38.88
2023-01-17T05:30:20.657Z,54.72
2023-01-17T05:32:54.281Z,64.30
2023-01-17T05:35:22.482Z,44.78
2023-01-17T05:37:49.947Z,58.90
2023-01-17T05:40:17.080Z,52.78
2023-01-17T05:42:50.015Z,47.10
2023-01-17T05:45:17.118Z,40.28
2023-01-17T05:47:44.274Z,64.22
2023-01-17T05:50:11.936Z,48.95
2023-01-17T05:52:38.371Z,53.55
2023-01-17T05:55:06.725Z,36.72
2023-01-17T05:57:33.462Z,45.50
2023-01-17T05:59:59.906Z,38.55
2023-01-17T06:02:26.397Z,51.55
2023-01-17T06:04:52.978Z,37.50
2023-01-17T06:07:19.430Z,37.63
2023-01-17T06:09:45.856Z,38.40
2023-01-17T06:12:12.288Z,48.70
2023-01-17T06:14:38.829Z,65.43
2023-01-17T06:17:05.396Z,42.65
2023-01-17T06:19:31.799Z,41.15
2023-01-17T06:21:58.207Z,60.90
2023-01-17T06:24:24.699Z,45.83
2023-01-17T06:26:51.130Z,53.03
2023-01-17T06:29:17.547Z,49.60
2023-01-17T06:31:44.066Z,38.45
2023-01-17T06:34:10.475Z,39.55
2023-01-17T06:36:36.936Z,55.60
2023-01-17T06:39:03.443Z,45.50
2023-01-17T06:41:29.899Z,42.47
2023-01-17T06:43:56.407Z,49.75
2023-01-17T06:46:23.346Z,48.05
2023-01-17T06:48:50.201Z,43.17
2023-01-17T06:51:16.737Z,49.58
2023-01-17T06:53:43.215Z,62.92
2023-01-17T06:56:09.870Z,53.30
2023-01-17T06:58:36.371Z,59.03
2023-01-17T07:01:06.797Z,43.70
2023-01-17T07:03:33.437Z,52.88
2023-01-17T07:06:02.889Z,52.35
2023-01-17T07:08:29.421Z,55.25
2023-01-17T07:11:00.352Z,49.10
2023-01-17T07:13:27.167Z,40.67
2023-01-17T07:15:53.863Z,43.50
2023-01-17T07:18:23.209Z,65.20
2023-01-17T07:20:50.412Z,64.35
2023-01-17T07:23:17.103Z,50.40
2023-01-17T07:25:43.547Z,57.15
2023-01-17T07:28:10.035Z,51.35
2023-01-17T07:30:36.794Z,49.40
2023-01-17T07:33:03.347Z,54.15
2023-01-17T07:35:29.844Z,76.10
2023-01-17T07:37:56.339Z,47.63
2023-01-17T07:40:22.845Z,72.50
2023-01-17T07:42:49.365Z,53.85
2023-01-17T07:45:16.129Z,51.92
2023-01-17T07:47:42.641Z,61.47
2023-01-17T07:50:09.465Z,57.47
2023-01-17T07:52:35.889Z,51.88
2023-01-17T07:55:02.335Z,47.45
2023-01-17T07:57:28.944Z,46.55
2023-01-17T07:59:55.357Z,47.33
2023-01-17T08:02:23.013Z,48.25
2023-01-17T08:04:49.748Z,37.80
2023-01-17T08:07:16.196Z,35.35
2023-01-17T08:09:43.789Z,46.25
2023-01-17T08:12:10.427Z,52.65
2023-01-17T08:14:37.049Z,54.08
2023-01-17T08:17:07.187Z,40.60
2023-01-17T08:19:33.622Z,43.05
2023-01-17T08:22:00.100Z,40.15
2023-01-17T08:24:26.595Z,41.65
2023-01-17T08:26:55.580Z,52.63
2023-01-17T08:29:22.470Z,44.58
2023-01-17T08:31:49.116Z,61.50
2023-01-17T08:34:15.933Z,43.00
2023-01-17T08:36:47.820Z,66.88
2023-01-17T08:39:14.534Z,67.28
2023-01-17T08:41:40.996Z,62.00
2023-01-17T08:44:07.463Z,53.80
2023-01-17T08:46:33.880Z,39.30
2023-01-17T08:49:01.301Z,39.35
2023-01-17T08:51:27.864Z,41.20
2023-01-17T08:53:55.292Z,51.17
2023-01-17T08:56:21.864Z,36.47
2023-01-17T08:58:48.300Z,40.92
2023-01-17T09:01:14.968Z,41.85
2023-01-17T09:03:41.838Z,40.20
2023-01-17T09:06:09.613Z,46.83
2023-01-17T09:08:36.194Z,43.42
2023-01-17T09:11:03.568Z,39.33
2023-01-17T09:13:30.070Z,45.92
2023-01-17T09:15:57.068Z,55.13
2023-01-17T09:18:24.181Z,46.78
2023-01-17T09:20:54.873Z,59.75
2023-01-17T09:23:25.366Z,49.28
2023-01-17T09:25:52.698Z,38.80
2023-01-17T09:28:19.203Z,38.75
2023-01-17T09:30:45.777Z,58.33
2023-01-17T09:33:12.394Z,46.42
2023-01-17T09:35:38.903Z,34.78
2023-01-17T09:38:05.383Z,38.03
2023-01-17T09:40:31.966Z,41.53
2023-01-17T09:43:03.666Z,32.50
2023-01-17T09:45:31.318Z,36.92
2023-01-17T09:47:59.101Z,55.10
2023-01-17T09:50:45.930Z,32.92
2023-01-17T09:53:13.650Z,41.90
2023-01-17T09:55:43.354Z,29.08
2023-01-17T09:58:12.413Z,34.67
2023-01-17T10:00:41.816Z,44.55
2023-01-17T10:03:26.733Z,37.42
2023-01-17T10:06:05.015Z,41.53
2023-01-17T10:08:31.474Z,39.35
2023-01-17T10:11:27.222Z,30.42
2023-01-17T10:13:53.623Z,50.05
2023-01-17T10:16:40.516Z,37.25
2023-01-17T10:19:12.777Z,34.03
2023-01-17T10:21:42.020Z,56.10
2023-01-17T10:24:28.764Z,43.15
2023-01-17T10:26:58.134Z,53.50
2023-01-17T10:29:28.059Z,34.08
2023-01-17T10:32:01.199Z,36.70
2023-01-17T10:34:34.930Z,53.00
2023-01-17T10:37:19.818Z,38.80
2023-01-17T10:39:48.064Z,42.10
2023-01-17T10:42:21.756Z,41.67
2023-01-17T10:45:07.409Z,50.08
2023-01-17T10:47:36.649Z,54.65
2023-01-17T10:50:05.195Z,45.30
2023-01-17T10:52:43.338Z,39.20
2023-01-17T10:55:22.016Z,60.53
2023-01-17T10:57:49.183Z,70.82
2023-01-17T11:00:22.717Z,45.85
2023-01-17T11:05:24.997Z,28.70
2023-01-17T11:07:57.408Z,39.40
2023-01-17T11:10:41.512Z,43.58
2023-01-17T11:13:20.780Z,42.00
2023-01-17T11:15:51.161Z,53.53
2023-01-17T11:18:21.445Z,40.47
2023-01-17T11:20:48.506Z,41.40
2023-01-17T11:23:29.547Z,31.00
2023-01-17T11:25:58.138Z,33.80
2023-01-17T11:28:30.660Z,50.65
2023-01-17T11:30:58.705Z,40.53
2023-01-17T11:33:31.727Z,46.40
2023-01-17T11:35:58.185Z,59.53
2023-01-17T11:38:24.726Z,42.80
2023-01-17T11:40:53.466Z,43.60
2023-01-17T11:43:28.873Z,44.53
2023-01-17T11:46:06.679Z,45.20
2023-01-17T11:48:38.116Z,47.33
2023-01-17T11:51:10.429Z,48.30
2023-01-17T11:53:38.259Z,40.20
2023-01-17T11:56:12.117Z,39.92
2023-01-17T11:58:41.447Z,44.33
2023-01-17T12:01:07.927Z,39.15
2023-01-17T12:03:49.705Z,44.42
2023-01-17T12:06:22.751Z,33.97
2023-01-17T12:09:01.331Z,48.00
2023-01-17T12:11:30.584Z,40.90
2023-01-17T12:14:03.044Z,34.22
2023-01-17T12:16:35.327Z,39.55
2023-01-17T12:19:06.028Z,41.72
2023-01-17T12:21:46.614Z,43.67
2023-01-17T12:24:41.311Z,44.60
2023-01-17T12:27:10.829Z,60.10
2023-01-17T12:29:47.907Z,41.50
2023-01-17T12:32:17.227Z,45.45
2023-01-17T12:34:47.299Z,51.08
2023-01-17T12:37:26.447Z,38.80
2023-01-17T12:39:55.022Z,40.25
2023-01-17T12:42:24.177Z,44.28
2023-01-17T12:45:00.446Z,47.50
2023-01-17T12:47:26.968Z,47.33
2023-01-17T12:49:58.106Z,37.25
2023-01-17T12:52:43.088Z,35.80
2023-01-17T12:55:15.893Z,44.80
2023-01-17T12:57:45.513Z,34.33
2023-01-17T13:00:12.925Z,66.80
2023-01-17T13:02:59.711Z,64.07
2023-01-17T13:05:26.214Z,33.63
2023-01-17T13:07:58.624Z,50.53
2023-01-17T13:10:30.902Z,37.80
2023-01-17T13:12:59.102Z,35.20
2023-01-17T13:15:28.336Z,34.67
2023-01-17T13:18:09.509Z,62.92
2023-01-17T13:20:56.158Z,58.40
2023-01-17T13:23:31.204Z,44.42
2023-01-17T13:25:58.339Z,33.05
2023-01-17T13:28:35.338Z,41.22
2023-01-17T13:31:13.928Z,46.83
2023-01-17T13:34:03.855Z,51.38
2023-01-17T13:36:39.430Z,43.22
2023-01-17T13:39:08.725Z,44.92
2023-01-17T13:41:44.360Z,50.42
2023-01-17T13:44:24.732Z,40.15
2023-01-17T13:46:54.484Z,36.78
2023-01-17T13:49:23.787Z,28.25
2023-01-17T13:52:12.308Z,40.50
2023-01-17T13:54:51.675Z,45.15
2023-01-17T13:57:29.714Z,41.95
2023-01-17T13:59:57.432Z,50.47
2023-01-17T14:02:32.904Z,52.80
2023-01-17T14:05:07.980Z,35.40
2023-01-17T14:07:35.790Z,42.05
2023-01-17T14:10:15.312Z,45.55
2023-01-17T14:12:41.720Z,47.20
2023-01-17T14:15:18.747Z,44.15
2023-01-17T14:17:50.834Z,43.33
2023-01-17T14:20:17.990Z,45.10
2023-01-17T14:22:49.259Z,33.05
2023-01-17T14:25:20.758Z,48.67
2023-01-17T14:27:55.166Z,41.92
2023-01-17T14:30:27.334Z,47.17
2023-01-17T14:32:56.775Z,58.58
2023-01-17T14:35:23.637Z,44.60
2023-01-17T14:37:53.676Z,48.75
2023-01-17T14:40:20.321Z,48.40
2023-01-17T14:42:48.032Z,39.22
2023-01-17T14:45:18.307Z,64.22
2023-01-17T14:47:45.244Z,50.70
2023-01-17T14:50:17.621Z,41.58
2023-01-17T14:52:46.806Z,55.83
2023-01-17T14:55:15.427Z,66.70
2023-01-17T14:57:42.884Z,53.72
2023-01-17T15:00:18.452Z,52.97
2023-01-17T15:02:45.384Z,73.25
2023-01-17T15:05:15.659Z,51.17
2023-01-17T15:07:43.621Z,62.67
2023-01-17T15:10:12.824Z,39.70
2023-01-17T15:12:39.407Z,59.17
2023-01-17T15:15:25.599Z,67.18
2023-01-17T15:17:53.879Z,52.63
2023-01-17T15:20:20.651Z,62.78
2023-01-17T15:22:47.175Z,52.42
2023-01-17T15:25:15.462Z,54.55
2023-01-17T15:27:42.855Z,52.67
2023-01-17T15:30:11.595Z,59.47
2023-01-17T15:32:38.623Z,66.20
2023-01-17T15:35:07.907Z,45.17
2023-01-17T15:37:34.378Z,50.05
2023-01-17T15:40:03.673Z,43.20
2023-01-17T15:42:31.424Z,74.60
2023-01-17T15:44:59.490Z,64.38
2023-01-17T15:47:33.092Z,84.35
2023-01-17T15:50:00.750Z,68.28
2023-01-17T15:52:27.964Z,74.93
2023-01-17T15:54:58.870Z,63.67
2023-01-17T15:57:36.996Z,62.60
2023-01-17T16:00:07.032Z,79.60
2023-01-17T16:02:35.681Z,82.82
2023-01-17T16:05:22.904Z,62.42
2023-01-17T16:07:53.619Z,56.60
2023-01-17T16:10:28.701Z,70.45
2023-01-17T16:12:56.185Z,66.25
2023-01-17T16:15:25.629Z,67.18
2023-01-17T16:17:53.768Z,85.03
2023-01-17T16:20:25.431Z,71.30
2023-01-17T16:22:52.416Z,76.88
2023-01-17T16:25:20.852Z,66.18
2023-01-17T16:27:47.333Z,72.15
2023-01-17T16:30:15.559Z,67.95
2023-01-17T16:32:48.908Z,57.60
2023-01-17T16:35:19.000Z,72.35
2023-01-17T16:37:47.963Z,61.45
2023-01-17T16:40:15.246Z,72.45
2023-01-17T16:42:42.579Z,66.65
2023-01-17T16:45:10.314Z,71.28
2023-01-17T16:47:36.868Z,85.15
2023-01-17T16:50:03.748Z,60.90
2023-01-17T16:52:30.185Z,70.20
2023-01-17T16:54:56.744Z,76.15
2023-01-17T16:57:23.245Z,71.60
2023-01-17T16:59:51.144Z,65.57
2023-01-17T17:02:18.646Z,66.90
2023-01-17T17:04:45.201Z,60.88
2023-01-17T17:07:11.701Z,81.78
2023-01-17T17:09:38.179Z,86.72
2023-01-17T17:12:05.109Z,86.97
2023-01-17T17:14:31.521Z,95.22
2023-01-17T17:16:57.933Z,78.60
2023-01-17T17:19:24.461Z,74.10
2023-01-17T17:21:50.990Z,56.22
2023-01-17T17:24:17.441Z,64.53
2023-01-17T17:26:44.461Z,70.20
2023-01-17T17:29:12.481Z,67.40
2023-01-17T17:31:39.971Z,60.90
2023-01-17T17:34:07.374Z,68.95
2023-01-17T17:36:34.960Z,78.80
2023-01-17T17:39:03.518Z,97.63
2023-01-17T17:41:34.501Z,65.15
2023-01-17T17:44:01.781Z,67.72
2023-01-17T17:46:29.265Z,84.80
2023-01-17T17:48:56.536Z,67.93
2023-01-17T17:51:24.472Z,75.00
2023-01-17T17:53:52.633Z,73.78
2023-01-17T17:56:20.533Z,67.40
2023-01-17T17:58:47.436Z,80.03
2023-01-17T18:01:13.910Z,79.68
2023-01-17T18:03:40.433Z,70.25
2023-01-17T18:06:08.460Z,80.32
2023-01-17T18:08:35.468Z,80.68
2023-01-17T18:11:02.949Z,80.53
2023-01-17T18:13:29.894Z,75.40
2023-01-17T18:16:07.759Z,83.15
2023-01-17T18:18:35.674Z,81.97
2023-01-17T18:21:29.327Z,97.35
2023-01-17T18:23:58.766Z,81.38
2023-01-17T18:26:35.287Z,84.00
2023-01-17T18:29:02.601Z,77.75
2023-01-17T18:31:30.061Z,70.65
2023-01-17T18:33:57.595Z,88.60
2023-01-17T18:36:24.446Z,84.75
2023-01-17T18:38:51.202Z,81.50
2023-01-17T18:41:21.758Z,87.57
2023-01-17T18:43:48.444Z,69.43
2023-01-17T18:46:15.413Z,79.15
2023-01-17T18:48:41.938Z,87.45
2023-01-17T18:51:09.471Z,101.88
2023-01-17T18:53:37.491Z,91.22
2023-01-17T18:56:05.610Z,118.95
2023-01-17T18:58:34.966Z,97.35
2023-01-17T19:01:08.718Z,96.28
2023-01-17T19:03:35.280Z,102.47
2023-01-17T19:06:02.135Z,110.95
2023-01-17T19:08:29.097Z,94.70
2023-01-17T19:10:55.578Z,95.13
2023-01-17T19:13:22.027Z,96.53
2023-01-17T19:15:48.519Z,90.80
2023-01-17T19:18:14.965Z,105.18
2023-01-17T19:20:41.459Z,111.15
2023-01-17T19:23:07.888Z,97.32
2023-01-17T19:25:34.806Z,114.35
2023-01-17T19:28:01.559Z,106.47
2023-01-17T19:30:28.068Z,110.68
2023-01-17T19:32:55.942Z,106.35
2023-01-17T19:35:23.056Z,103.13
2023-01-17T19:37:50.846Z,121.53
2023-01-17T19:40:18.465Z,137.60
2023-01-17T19:42:44.889Z,118.50
2023-01-17T19:45:12.826Z,132.73
2023-01-17T19:47:39.764Z,139.27
2023-01-17T19:50:08.381Z,111.13
2023-01-17T19:52:35.287Z,139.43
2023-01-17T19:55:02.099Z,125.32
2023-01-17T19:57:34.809Z,125.85
2023-01-17T20:00:01.890Z,121.30
2023-01-17T20:02:28.650Z,122.55
2023-01-17T20:04:55.136Z,126.45
2023-01-17T20:07:21.572Z,125.30
2023-01-17T20:09:47.967Z,128.20
2023-01-17T20:12:14.612Z,123.50
2023-01-17T20:14:41.027Z,134.43
2023-01-17T20:17:07.497Z,118.68
2023-01-17T20:19:33.891Z,131.02
2023-01-17T20:22:00.377Z,102.15
2023-01-17T20:24:26.964Z,133.20
2023-01-17T20:26:53.411Z,127.30
2023-01-17T20:29:19.907Z,118.60
2023-01-17T20:31:46.515Z,123.60
2023-01-17T20:34:13.687Z,107.05
2023-01-17T20:36:41.686Z,108.13
2023-01-17T20:39:08.877Z,147.48
2023-01-17T20:41:36.457Z,103.32
2023-01-17T20:44:03.817Z,118.97
2023-01-17T20:46:35.670Z,114.85
2023-01-17T20:49:05.392Z,102.68
2023-01-17T20:51:34.458Z,122.25
2023-01-17T20:54:02.655Z,112.07
2023-01-17T20:56:34.721Z,110.85
2023-01-17T20:59:03.717Z,114.35
2023-01-17T21:01:30.683Z,100.80
2023-01-17T21:03:57.708Z,116.85
2023-01-17T21:06:24.658Z,124.97
2023-01-17T21:08:51.448Z,100.45
2023-01-17T21:11:26.402Z,113.22
2023-01-17T21:13:53.148Z,101.88
2023-01-17T21:16:22.845Z,106.38
2023-01-17T21:18:50.496Z,96.60
2023-01-17T21:21:18.698Z,101.90
2023-01-17T21:23:45.502Z,96.95
2023-01-17T21:26:13.125Z,103.30
2023-01-17T21:28:40.855Z,117.60
2023-01-17T21:31:23.254Z,101.50
2023-01-17T21:33:57.279Z,120.78
2023-01-17T21:36:25.179Z,124.90
2023-01-17T21:38:54.532Z,116.95
2023-01-17T21:41:22.624Z,109.55
2023-01-17T21:43:53.260Z,91.35
2023-01-17T21:46:19.761Z,132.77
2023-01-17T21:48:46.245Z,124.28
2023-01-17T21:51:12.742Z,148.18
2023-01-17T21:53:39.723Z,135.05
2023-01-17T21:56:26.216Z,178.10
2023-01-17T21:58:54.722Z,161.65
2023-01-17T22:01:22.612Z,148.73
2023-01-17T22:03:51.115Z,152.23
2023-01-17T22:06:17.987Z,158.50
2023-01-17T22:08:44.757Z,122.97
2023-01-17T22:11:12.689Z,148.23
2023-01-17T22:13:39.815Z,156.13
2023-01-17T22:16:08.652Z,117.15
2023-01-17T22:18:39.061Z,127.05
2023-01-17T22:21:11.755Z,144.80
2023-01-17T22:23:38.437Z,118.28
2023-01-17T22:26:12.055Z,118.00
2023-01-17T22:28:39.403Z,129.35
2023-01-17T22:31:08.273Z,143.27
2023-01-17T22:33:35.979Z,147.80
2023-01-17T22:36:02.418Z,160.27
2023-01-17T22:38:28.833Z,162.05
2023-01-17T22:41:01.216Z,154.75
2023-01-17T22:43:27.624Z,139.43
2023-01-17T22:45:58.690Z,155.98
2023-01-17T22:48:25.505Z,166.02
2023-01-17T22:50:56.559Z,156.43
2023-01-17T22:53:23.031Z,171.00
2023-01-17T22:55:57.496Z,160.63
2023-01-17T22:58:23.919Z,159.82
2023-01-17T23:00:50.999Z,165.70
2023-01-17T23:03:17.515Z,149.20
2023-01-17T23:05:46.786Z,153.05
2023-01-17T23:08:13.246Z,163.40
2023-01-17T23:11:00.117Z,169.27
2023-01-17T23:13:26.580Z,173.90
2023-01-17T23:16:11.508Z,164.07
2023-01-17T23:19:01.216Z,145.88
2023-01-17T23:21:47.669Z,149.57
2023-01-17T23:24:14.129Z,148.13
2023-01-17T23:27:00.541Z,152.98
2023-01-17T23:29:27.009Z,156.93
2023-01-17T23:31:53.530Z,143.88
2023-01-17T23:34:20.142Z,160.15
2023-01-17T23:36:46.575Z,160.40
2023-01-17T23:39:12.991Z,182.18
2023-01-17T23:41:57.869Z,163.52
2023-01-17T23:44:27.233Z,153.35
2023-01-17T23:46:53.673Z,161.02
2023-01-17T23:49:20.202Z,151.43
2023-01-17T23:51:47.246Z,149.00
2023-01-17T23:54:13.663Z,166.82
2023-01-17T23:56:40.066Z,140.30
2023-01-17T23:59:06.477Z,148.25
